sensor_id;sensor_type;location;lat;lon;timestamp;P1;durP1;ratioP1;P2;durP2;ratioP2
12373;SDS011;6251;51.762;8.660;2023-03-25T00:01:19;3.42;;;1.30;;
12373;SDS011;6251;51.762;8.660;2023-03-25T00:11:24;1.85;;;1.15;;
12373;SDS011;6251;51.762;8.660;2023-03-25T02:03:56;2.20;;;1.87;;
12373;SDS011;6251;51.762;8.660;2023-03-25T02:14:09;3.10;;;2.10;;
12373;SDS011;6251;51.762;8.660;2023-03-25T03:45:43;3.60;;;2.60;;
12373;SDS011;6251;51.762;8.660;2023-03-25T03:56:09;2.80;;;2.58;;
12373;SDS011;6251;51.762;8.660;2023-03-25T05:07:15;2.85;;;2.65;;
12373;SDS011;6251;51.762;8.660;2023-03-25T05:17:17;3.60;;;2.70;;
12373;SDS011;6251;51.762;8.660;2023-03-25T05:27:18;2.60;;;2.35;;
12373;SDS011;6251;51.762;8.660;2023-03-25T05:37:19;5.10;;;2.50;;
12373;SDS011;6251;51.762;8.660;2023-03-25T05:47:21;3.22;;;2.90;;
12373;SDS011;6251;51.762;8.660;2023-03-25T05:57:23;3.85;;;2.80;;
12373;SDS011;6251;51.762;8.660;2023-03-25T06:07:23;5.97;;;2.83;;
12373;SDS011;6251;51.762;8.660;2023-03-25T06:17:24;3.65;;;2.80;;
12373;SDS011;6251;51.762;8.660;2023-03-25T06:27:26;4.62;;;2.78;;
12373;SDS011;6251;51.762;8.660;2023-03-25T06:37:26;3.17;;;2.47;;
12373;SDS011;6251;51.762;8.660;2023-03-25T06:47:27;5.25;;;2.78;;
12373;SDS011;6251;51.762;8.660;2023-03-25T06:57:28;4.10;;;3.05;;
12373;SDS011;6251;51.762;8.660;2023-03-25T07:07:28;4.32;;;2.58;;
12373;SDS011;6251;51.762;8.660;2023-03-25T07:17:29;5.25;;;2.90;;
12373;SDS011;6251;51.762;8.660;2023-03-25T07:27:29;4.70;;;2.33;;
12373;SDS011;6251;51.762;8.660;2023-03-25T07:37:30;2.65;;;1.83;;
12373;SDS011;6251;51.762;8.660;2023-03-25T07:47:31;2.78;;;1.65;;
12373;SDS011;6251;51.762;8.660;2023-03-25T07:57:31;2.85;;;1.70;;
12373;SDS011;6251;51.762;8.660;2023-03-25T08:07:32;2.15;;;1.60;;
12373;SDS011;6251;51.762;8.660;2023-03-25T08:17:33;3.42;;;1.80;;
12373;SDS011;6251;51.762;8.660;2023-03-25T08:27:33;2.00;;;1.70;;
12373;SDS011;6251;51.762;8.660;2023-03-25T08:37:34;2.72;;;1.62;;
12373;SDS011;6251;51.762;8.660;2023-03-25T08:47:36;1.40;;;1.00;;
12373;SDS011;6251;51.762;8.660;2023-03-25T08:57:37;4.50;;;1.75;;
12373;SDS011;6251;51.762;8.660;2023-03-25T09:07:38;2.97;;;2.25;;
12373;SDS011;6251;51.762;8.660;2023-03-25T09:17:38;2.53;;;1.92;;
12373;SDS011;6251;51.762;8.660;2023-03-25T09:27:40;3.58;;;1.92;;
12373;SDS011;6251;51.762;8.660;2023-03-25T09:37:40;6.85;;;2.10;;
12373;SDS011;6251;51.762;8.660;2023-03-25T09:47:46;4.45;;;2.20;;
12373;SDS011;6251;51.762;8.660;2023-03-25T10:18:32;5.90;;;2.00;;
12373;SDS011;6251;51.762;8.660;2023-03-25T10:28:43;4.43;;;1.98;;
12373;SDS011;6251;51.762;8.660;2023-03-25T10:38:55;3.90;;;1.95;;
12373;SDS011;6251;51.762;8.660;2023-03-25T10:48:56;2.80;;;1.55;;
12373;SDS011;6251;51.762;8.660;2023-03-25T10:58:57;2.20;;;1.60;;
12373;SDS011;6251;51.762;8.660;2023-03-25T11:09:09;7.95;;;2.08;;
12373;SDS011;6251;51.762;8.660;2023-03-25T11:19:26;2.40;;;2.12;;
12373;SDS011;6251;51.762;8.660;2023-03-25T11:29:30;8.68;;;2.37;;
12373;SDS011;6251;51.762;8.660;2023-03-25T11:39:36;5.82;;;2.10;;
12373;SDS011;6251;51.762;8.660;2023-03-25T11:49:38;5.82;;;2.62;;
12373;SDS011;6251;51.762;8.660;2023-03-25T11:59:47;5.12;;;2.33;;
12373;SDS011;6251;51.762;8.660;2023-03-25T12:09:53;4.28;;;2.03;;
12373;SDS011;6251;51.762;8.660;2023-03-25T12:30:18;8.32;;;2.42;;
12373;SDS011;6251;51.762;8.660;2023-03-25T13:01:03;3.72;;;2.03;;
12373;SDS011;6251;51.762;8.660;2023-03-25T13:11:11;2.67;;;1.90;;
12373;SDS011;6251;51.762;8.660;2023-03-25T13:21:20;3.90;;;1.60;;
12373;SDS011;6251;51.762;8.660;2023-03-25T13:31:28;5.97;;;1.77;;
12373;SDS011;6251;51.762;8.660;2023-03-25T13:41:38;6.15;;;2.03;;
12373;SDS011;6251;51.762;8.660;2023-03-25T13:51:42;5.28;;;1.50;;
12373;SDS011;6251;51.762;8.660;2023-03-25T14:01:50;3.95;;;1.60;;
12373;SDS011;6251;51.762;8.660;2023-03-25T14:12:03;4.55;;;1.98;;
12373;SDS011;6251;51.762;8.660;2023-03-25T14:22:15;5.15;;;1.50;;
12373;SDS011;6251;51.762;8.660;2023-03-25T14:52:42;5.97;;;1.75;;
12373;SDS011;6251;51.762;8.660;2023-03-25T15:02:48;3.67;;;1.30;;
12373;SDS011;6251;51.762;8.660;2023-03-25T15:12:58;3.08;;;1.42;;
12373;SDS011;6251;51.762;8.660;2023-03-25T15:24:08;4.43;;;1.40;;
12373;SDS011;6251;51.762;8.660;2023-03-25T15:33:44;1.85;;;0.85;;
12373;SDS011;6251;51.762;8.660;2023-03-25T15:44:03;0.70;;;0.68;;
12373;SDS011;6251;51.762;8.660;2023-03-25T15:54:44;3.12;;;1.20;;
12373;SDS011;6251;51.762;8.660;2023-03-25T16:04:48;1.98;;;1.08;;
12373;SDS011;6251;51.762;8.660;2023-03-25T16:14:51;1.77;;;0.95;;
12373;SDS011;6251;51.762;8.660;2023-03-25T16:24:53;1.70;;;0.90;;
12373;SDS011;6251;51.762;8.660;2023-03-25T16:34:56;0.75;;;0.75;;
12373;SDS011;6251;51.762;8.660;2023-03-25T16:44:57;1.75;;;1.10;;
12373;SDS011;6251;51.762;8.660;2023-03-25T17:15:31;2.03;;;1.20;;
12373;SDS011;6251;51.762;8.660;2023-03-25T17:25:34;2.35;;;1.33;;
12373;SDS011;6251;51.762;8.660;2023-03-25T17:35:52;4.05;;;1.95;;
12373;SDS011;6251;51.762;8.660;2023-03-25T17:45:54;2.87;;;1.95;;
12373;SDS011;6251;51.762;8.660;2023-03-25T17:56:07;4.45;;;2.72;;
12373;SDS011;6251;51.762;8.660;2023-03-25T18:06:11;3.40;;;2.42;;
12373;SDS011;6251;51.762;8.660;2023-03-25T18:16:12;8.35;;;3.30;;
12373;SDS011;6251;51.762;8.660;2023-03-25T18:26:17;2.87;;;1.45;;
12373;SDS011;6251;51.762;8.660;2023-03-25T18:36:18;2.90;;;1.20;;
12373;SDS011;6251;51.762;8.660;2023-03-25T18:46:19;2.15;;;1.40;;
12373;SDS011;6251;51.762;8.660;2023-03-25T18:56:20;3.40;;;1.35;;
12373;SDS011;6251;51.762;8.660;2023-03-25T19:06:21;1.92;;;1.67;;
12373;SDS011;6251;51.762;8.660;2023-03-25T19:16:21;3.00;;;1.73;;
12373;SDS011;6251;51.762;8.660;2023-03-25T19:26:22;2.60;;;1.70;;
12373;SDS011;6251;51.762;8.660;2023-03-25T19:36:22;3.08;;;2.35;;
12373;SDS011;6251;51.762;8.660;2023-03-25T19:46:24;1.70;;;1.60;;
12373;SDS011;6251;51.762;8.660;2023-03-25T19:56:27;3.35;;;2.08;;
12373;SDS011;6251;51.762;8.660;2023-03-25T20:06:28;1.90;;;1.73;;
12373;SDS011;6251;51.762;8.660;2023-03-25T20:16:30;1.80;;;1.70;;
12373;SDS011;6251;51.762;8.660;2023-03-25T20:26:31;3.08;;;2.10;;
12373;SDS011;6251;51.762;8.660;2023-03-25T20:36:31;2.90;;;1.92;;
12373;SDS011;6251;51.762;8.660;2023-03-25T20:46:32;1.52;;;1.42;;
12373;SDS011;6251;51.762;8.660;2023-03-25T20:56:33;2.60;;;1.65;;
12373;SDS011;6251;51.762;8.660;2023-03-25T21:06:33;1.60;;;1.50;;
12373;SDS011;6251;51.762;8.660;2023-03-25T21:16:34;5.25;;;2.08;;
12373;SDS011;6251;51.762;8.660;2023-03-25T21:26:35;4.40;;;1.98;;
12373;SDS011;6251;51.762;8.660;2023-03-25T21:36:36;2.12;;;2.00;;
12373;SDS011;6251;51.762;8.660;2023-03-25T21:46:36;3.17;;;1.90;;
12373;SDS011;6251;51.762;8.660;2023-03-25T21:56:39;3.47;;;2.72;;
